ヨハネスブルグ の空港の天気 - METARとTAF

ヨハネスブルグ/O.R.タンボ国際空港 ( FAOR / JNB ) - 南アフリカ ヨハネスブルグ
飛行場実況気象(Metar)
観測時間12/15 13:00 SAST (12/15 11:00 UTC)
風向・風速西北西 4m/s
視程10km以上
天気現象
少しの雲 雲底高度 1370m
気温28℃
湿度32%
気圧1027hPa
METARFAOR 151100Z 30008KT 240V340 9999 FEW045 28/10 Q1027 NOSIG
過去の天気等 Google飛行場航空写真 Wunderground天気予報

過去48時間のMETAR

飛行場予報(TAF)
発表時間: 12/15 12:00 SAST (12/15 10:00 UTC)
予報対象時間: 15日14時 SAST ~ 16日20時 SAST
風向・風速西 5m/s
視程10km以上
全天の4割程度の雲 雲底高度 1220m
15日15時 SAST ~ 15日18時 SAST に 確率 30% で一時的に
天気現象弱い雷雨
少しの積乱雲 雲底高度 1220m
15日17時 SAST ~ 15日19時 SAST に徐々に
風向・風速東北東 7m/s
15日19時 SAST ~ 15日21時 SAST に徐々に
風向・風速北 8m/s
15日19時 SAST ~ 15日24時 SAST に 確率 40% で一時的に
風向・風速南南西 8m/s 瞬間風速 13m/s
視程4500m
天気現象雷雨
全天の4割程度の積乱雲 雲底高度 1220m
16日1時 SAST ~ 16日3時 SAST に徐々に
風向・風速東 6m/s
視程10km以上
なし
TAF FAOR 151000Z 1512/1618 27010KT 9999 SCT040
PROB30 TEMPO 1513/1516 -TSRA FEW040CB
BECMG 1515/1517 07013KT
BECMG 1517/1519 35015KT
PROB40 TEMPO 1517/1522 20015G25KT 4500 TSRA SCT040CB
BECMG 1523/1601 09012KT CAVOK TX30/1513Z TN16/1603Z